createdAt,value
2023-10-12T00:00:49.413Z,100411.28
2023-10-12T00:03:56.918Z,100413.94
2023-10-12T00:06:59.607Z,100409.63
2023-10-12T00:10:14.712Z,100400.78
2023-10-12T00:13:21.341Z,100395.09
2023-10-12T00:16:23.913Z,100396.16
2023-10-12T00:19:26.207Z,100398.91
2023-10-12T00:22:29.925Z,100399.19
2023-10-12T00:25:35.361Z,100401.88
2023-10-12T00:28:40.001Z,100399.63
2023-10-12T00:31:43.519Z,100394.94
2023-10-12T00:34:48.783Z,100386.84
2023-10-12T00:37:50.351Z,100376.47
2023-10-12T00:40:56.899Z,100373.16
2023-10-12T00:44:10.475Z,100374.41
2023-10-12T00:47:13.790Z,100368.69
2023-10-12T00:50:17.246Z,100377.97
2023-10-12T00:53:32.076Z,100378.09
2023-10-12T00:56:33.765Z,100373.59
2023-10-12T00:59:35.660Z,100367.13
2023-10-12T01:02:41.016Z,100373.09
2023-10-12T01:05:43.454Z,100366.06
2023-10-12T01:08:45.107Z,100363.09
2023-10-12T01:11:58.103Z,100354.69
2023-10-12T01:15:05.670Z,100355.47
2023-10-12T01:18:11.045Z,100350.03
2023-10-12T01:21:12.671Z,100356.22
2023-10-12T01:24:14.704Z,100350.97
2023-10-12T01:27:16.610Z,100351.94
2023-10-12T01:30:30.166Z,100358.34
2023-10-12T01:33:31.846Z,100357.75
2023-10-12T01:36:33.932Z,100349.88
2023-10-12T01:39:40.314Z,100348.25
2023-10-12T01:42:41.927Z,100345.25
2023-10-12T01:45:44.804Z,100337.63
2023-10-12T01:48:46.582Z,100346.75
2023-10-12T01:51:49.327Z,100345.06
2023-10-12T01:54:50.891Z,100340.13
2023-10-12T01:57:55.392Z,100340.31
2023-10-12T02:01:06.170Z,100347.34
2023-10-12T02:04:08.130Z,100348.31
2023-10-12T02:07:11.671Z,100343.91
2023-10-12T02:10:13.648Z,100352.69
2023-10-12T02:13:15.154Z,100345.63
2023-10-12T02:16:25.078Z,100342.13
2023-10-12T02:19:34.263Z,100349.38
2023-10-12T02:22:37.258Z,100353.06
2023-10-12T02:25:51.615Z,100345.06
2023-10-12T02:28:57.068Z,100352.22
2023-10-12T02:32:16.213Z,100356.50
2023-10-12T02:35:20.656Z,100348.22
2023-10-12T02:38:28.632Z,100344.59
2023-10-12T02:41:30.114Z,100346.50
2023-10-12T02:44:35.305Z,100341.06
2023-10-12T02:47:41.690Z,100343.75
2023-10-12T02:51:02.741Z,100338.19
2023-10-12T02:54:05.514Z,100334.78
2023-10-12T02:57:06.978Z,100334.97
2023-10-12T03:00:13.527Z,100346.16
2023-10-12T03:03:38.299Z,100351.53
2023-10-12T03:06:54.836Z,100361.88
2023-10-12T03:09:59.960Z,100368.66
2023-10-12T03:13:05.942Z,100365.81
2023-10-12T03:16:15.296Z,100374.66
2023-10-12T03:19:27.054Z,100374.94
2023-10-12T03:22:35.500Z,100374.00
2023-10-12T03:25:44.149Z,100379.69
2023-10-12T03:28:46.635Z,100388.06
2023-10-12T03:31:48.496Z,100399.88
2023-10-12T03:34:50.963Z,100401.97
2023-10-12T03:38:01.798Z,100394.06
2023-10-12T03:41:41.538Z,100402.63
2023-10-12T03:44:45.880Z,100407.63
2023-10-12T03:48:04.308Z,100410.41
2023-10-12T03:51:17.986Z,100412.09
2023-10-12T03:54:27.900Z,100421.28
2023-10-12T03:57:35.922Z,100408.97
2023-10-12T04:00:51.997Z,100414.16
2023-10-12T04:04:00.062Z,100409.13
2023-10-12T04:07:02.367Z,100405.69
2023-10-12T04:10:14.678Z,100394.88
2023-10-12T04:13:29.351Z,100389.72
2023-10-12T04:16:41.278Z,100388.00
2023-10-12T04:19:46.913Z,100404.00
2023-10-12T04:22:51.206Z,100405.97
2023-10-12T04:26:09.933Z,100404.34
2023-10-12T04:29:14.940Z,100405.72
2023-10-12T04:32:37.768Z,100417.44
2023-10-12T04:35:52.030Z,100416.47
2023-10-12T04:39:12.397Z,100425.66
2023-10-12T04:42:21.698Z,100424.91
2023-10-12T04:45:28.734Z,100425.00
2023-10-12T04:48:32.899Z,100422.25
2023-10-12T04:51:40.800Z,100418.47
2023-10-12T04:55:21.205Z,100420.06
2023-10-12T04:58:25.571Z,100424.13
2023-10-12T05:01:40.550Z,100407.97
2023-10-12T05:04:42.351Z,100407.97
2023-10-12T05:07:56.727Z,100418.81
2023-10-12T05:10:59.038Z,100414.00
2023-10-12T05:14:03.159Z,100425.16
2023-10-12T05:17:04.631Z,100411.78
2023-10-12T05:20:06.689Z,100425.84
2023-10-12T05:23:09.189Z,100423.44
2023-10-12T05:26:10.908Z,100427.03
2023-10-12T05:29:32.453Z,100426.22
2023-10-12T05:32:44.316Z,100427.91
2023-10-12T05:35:53.957Z,100430.34
2023-10-12T05:39:12.983Z,100434.28
2023-10-12T05:42:15.747Z,100437.69
2023-10-12T05:45:24.036Z,100433.94
2023-10-12T05:48:25.716Z,100432.03
2023-10-12T05:51:28.891Z,100428.09
2023-10-12T05:54:32.211Z,100443.19
2023-10-12T05:57:35.233Z,100439.66
2023-10-12T06:00:37.156Z,100435.13
2023-10-12T06:03:47.483Z,100448.22
2023-10-12T06:06:49.389Z,100464.63
2023-10-12T06:09:54.273Z,100478.13
2023-10-12T06:12:57.394Z,100479.94
2023-10-12T06:15:59.405Z,100473.22
2023-10-12T06:19:01.717Z,100465.69
2023-10-12T06:22:24.654Z,100466.34
2023-10-12T06:25:29.558Z,100476.78
2023-10-12T06:28:31.022Z,100451.59
2023-10-12T06:31:32.839Z,100447.53
2023-10-12T06:34:35.958Z,100446.88
2023-10-12T06:37:51.010Z,100450.69
2023-10-12T06:41:01.919Z,100464.16
2023-10-12T06:44:22.310Z,100474.84
2023-10-12T06:47:29.377Z,100480.69
2023-10-12T06:50:30.878Z,100488.88
2023-10-12T06:53:37.746Z,100491.13
2023-10-12T06:56:42.196Z,100488.19
2023-10-12T06:59:59.568Z,100493.22
2023-10-12T07:03:04.760Z,100493.78
2023-10-12T07:06:15.543Z,100503.22
2023-10-12T07:09:17.133Z,100496.63
2023-10-12T07:12:19.289Z,100498.91
2023-10-12T07:15:22.992Z,100500.25
2023-10-12T07:18:24.576Z,100507.75
2023-10-12T07:21:26.602Z,100496.78
2023-10-12T07:24:31.670Z,100503.81
2023-10-12T07:27:50.056Z,100514.34
2023-10-12T07:31:14.386Z,100513.09
2023-10-12T07:34:20.564Z,100505.41
2023-10-12T07:37:22.945Z,100493.69
2023-10-12T07:40:24.558Z,100496.81
2023-10-12T07:43:26.166Z,100496.34
2023-10-12T07:46:28.882Z,100513.44
2023-10-12T07:49:36.057Z,100508.03
2023-10-12T07:52:47.879Z,100503.03
2023-10-12T07:55:56.283Z,100502.94
2023-10-12T07:58:58.834Z,100502.50
2023-10-12T08:02:09.176Z,100500.56
2023-10-12T08:05:24.878Z,100496.09
2023-10-12T08:08:35.675Z,100497.22
2023-10-12T08:11:40.674Z,100511.03
2023-10-12T08:14:42.342Z,100520.69
2023-10-12T08:17:46.891Z,100504.50
2023-10-12T08:20:59.112Z,100496.03
2023-10-12T08:24:04.397Z,100493.88
2023-10-12T08:27:07.662Z,100480.50
2023-10-12T08:30:23.120Z,100484.44
2023-10-12T08:33:44.720Z,100483.59
2023-10-12T08:37:04.886Z,100496.97
2023-10-12T08:40:09.428Z,100500.84
2023-10-12T08:43:11.201Z,100495.78
2023-10-12T08:46:14.255Z,100491.38
2023-10-12T08:49:34.864Z,100496.28
2023-10-12T08:52:40.049Z,100513.34
2023-10-12T08:55:42.668Z,100522.88
2023-10-12T08:58:51.981Z,100526.81
2023-10-12T09:01:53.562Z,100522.53
2023-10-12T09:04:55.867Z,100522.31
2023-10-12T09:08:14.021Z,100528.63
2023-10-12T09:11:15.831Z,100526.75
2023-10-12T09:14:18.439Z,100529.22
2023-10-12T09:17:29.463Z,100531.00
2023-10-12T09:20:33.105Z,100531.94
2023-10-12T09:23:38.774Z,100534.75
2023-10-12T09:26:48.284Z,100540.84
2023-10-12T09:29:58.977Z,100546.06
2023-10-12T09:33:29.649Z,100546.69
2023-10-12T09:36:31.105Z,100543.31
2023-10-12T09:39:36.564Z,100538.69
2023-10-12T09:42:38.460Z,100545.84
2023-10-12T09:45:46.157Z,100555.97
2023-10-12T09:48:48.327Z,100555.34
2023-10-12T09:52:00.723Z,100549.25
2023-10-12T09:55:15.314Z,100542.94
2023-10-12T09:58:25.812Z,100539.28
2023-10-12T10:01:50.961Z,100550.69
2023-10-12T10:05:02.390Z,100546.91
2023-10-12T10:08:05.857Z,100552.50
2023-10-12T10:11:13.465Z,100568.47
2023-10-12T10:14:21.722Z,100561.53
2023-10-12T10:17:37.033Z,100559.81
2023-10-12T10:21:01.752Z,100560.69
2023-10-12T10:24:04.519Z,100561.63
2023-10-12T10:27:16.376Z,100559.03
2023-10-12T10:30:26.325Z,100561.00
2023-10-12T10:33:30.188Z,100560.75
2023-10-12T10:36:37.365Z,100551.28
2023-10-12T10:39:44.240Z,100565.81
2023-10-12T10:42:58.417Z,100572.03
2023-10-12T10:46:05.230Z,100560.81
2023-10-12T10:49:32.221Z,100562.91
2023-10-12T10:52:33.837Z,100572.66
2023-10-12T10:55:36.635Z,100563.88
2023-10-12T10:58:38.637Z,100563.13
2023-10-12T11:01:50.131Z,100558.97
2023-10-12T11:04:58.588Z,100555.97
2023-10-12T11:08:21.285Z,100554.22
2023-10-12T11:11:38.150Z,100557.03
2023-10-12T11:14:44.205Z,100564.34
2023-10-12T11:17:58.606Z,100556.56
2023-10-12T11:21:02.502Z,100555.09
2023-10-12T11:24:05.261Z,100537.81
2023-10-12T11:27:09.036Z,100533.03
2023-10-12T11:30:20.351Z,100531.09
2023-10-12T11:33:29.110Z,100522.66
2023-10-12T11:36:30.687Z,100526.53
2023-10-12T11:39:41.773Z,100524.59
2023-10-12T11:42:53.679Z,100515.78
2023-10-12T11:46:04.564Z,100507.72
2023-10-12T11:49:09.436Z,100535.78
2023-10-12T11:52:16.806Z,100533.84
2023-10-12T11:55:20.105Z,100524.06
2023-10-12T11:58:21.735Z,100508.66
2023-10-12T12:01:24.382Z,100510.13
2023-10-12T12:04:35.357Z,100488.19
2023-10-12T12:07:37.007Z,100477.78
2023-10-12T12:10:47.355Z,100516.25
2023-10-12T12:13:52.813Z,100513.44
2023-10-12T12:16:54.339Z,100498.94
2023-10-12T12:19:55.851Z,100489.41
2023-10-12T12:23:05.032Z,100509.66
2023-10-12T12:26:11.097Z,100501.59
2023-10-12T12:29:13.092Z,100491.97
2023-10-12T12:32:14.904Z,100495.81
2023-10-12T12:35:17.013Z,100500.88
2023-10-12T12:38:30.739Z,100495.09
2023-10-12T12:41:35.910Z,100491.31
2023-10-12T12:44:38.259Z,100472.91
2023-10-12T12:47:39.762Z,100466.19
2023-10-12T12:50:44.233Z,100452.88
2023-10-12T12:53:48.159Z,100443.38
2023-10-12T12:56:54.601Z,100436.41
2023-10-12T12:59:56.102Z,100429.47
2023-10-12T13:03:01.744Z,100436.25
2023-10-12T13:06:08.416Z,100440.88
2023-10-12T13:09:29.478Z,100435.75
2023-10-12T13:12:32.734Z,100437.69
2023-10-12T13:15:42.636Z,100440.59
2023-10-12T13:18:47.504Z,100461.72
2023-10-12T13:21:50.540Z,100446.84
2023-10-12T13:24:55.993Z,100439.03
2023-10-12T13:27:57.653Z,100441.00
2023-10-12T13:30:59.882Z,100441.09
2023-10-12T13:34:06.722Z,100437.56
2023-10-12T13:37:08.626Z,100424.94
2023-10-12T13:40:16.397Z,100409.06
2023-10-12T13:43:23.263Z,100416.03
2023-10-12T13:46:24.972Z,100406.91
2023-10-12T13:49:26.872Z,100407.75
2023-10-12T13:52:28.331Z,100400.22
2023-10-12T13:55:30.783Z,100401.72
2023-10-12T13:58:35.207Z,100400.63
2023-10-12T14:01:38.373Z,100407.72
2023-10-12T14:04:41.969Z,100402.09
2023-10-12T14:07:43.500Z,100391.19
2023-10-12T14:10:45.397Z,100383.03
2023-10-12T14:13:48.551Z,100384.72
2023-10-12T14:16:50.155Z,100374.88
2023-10-12T14:19:52.104Z,100367.59
2023-10-12T14:22:58.599Z,100372.84
2023-10-12T14:26:00.136Z,100359.66
2023-10-12T14:29:07.008Z,100363.94
2023-10-12T14:32:09.473Z,100369.41
2023-10-12T14:35:11.319Z,100359.44
2023-10-12T14:38:15.200Z,100354.41
2023-10-12T14:41:19.717Z,100358.94
2023-10-12T14:44:21.646Z,100360.28
2023-10-12T14:47:23.261Z,100359.69
2023-10-12T14:50:25.300Z,100377.75
2023-10-12T14:53:29.230Z,100387.13
2023-10-12T14:56:33.503Z,100383.81
2023-10-12T14:59:35.357Z,100372.97
2023-10-12T15:02:38.433Z,100366.66
2023-10-12T15:05:40.348Z,100371.91
2023-10-12T15:08:42.185Z,100367.91
2023-10-12T15:11:45.302Z,100378.75
2023-10-12T15:14:48.400Z,100383.00
2023-10-12T15:17:49.908Z,100373.16
2023-10-12T15:20:56.388Z,100362.44
2023-10-12T15:24:03.668Z,100370.63
2023-10-12T15:27:05.439Z,100371.31
2023-10-12T15:30:12.251Z,100385.69
2023-10-12T15:33:14.034Z,100381.34
2023-10-12T15:36:17.460Z,100384.88
2023-10-12T15:39:19.386Z,100397.63
2023-10-12T15:42:21.087Z,100400.41
2023-10-12T15:45:25.332Z,100411.00
2023-10-12T15:48:28.015Z,100398.81
2023-10-12T15:51:29.681Z,100410.59
2023-10-12T15:54:32.917Z,100418.88
2023-10-12T15:57:34.461Z,100415.34
2023-10-12T16:00:36.018Z,100402.97
2023-10-12T16:03:37.596Z,100403.03
2023-10-12T16:06:39.153Z,100392.91
2023-10-12T16:09:41.307Z,100397.81
2023-10-12T16:12:43.602Z,100402.06
2023-10-12T16:15:45.608Z,100411.50
2023-10-12T16:18:47.831Z,100426.38
2023-10-12T16:21:50.010Z,100426.53
2023-10-12T16:24:53.307Z,100434.66
2023-10-12T16:27:55.112Z,100428.00
2023-10-12T16:30:56.600Z,100435.09
2023-10-12T16:34:00.365Z,100418.22
2023-10-12T16:37:02.956Z,100423.00
2023-10-12T16:40:06.912Z,100439.28
2023-10-12T16:43:09.816Z,100445.97
2023-10-12T16:46:17.177Z,100439.13
2023-10-12T16:49:19.059Z,100436.25
2023-10-12T16:52:20.709Z,100430.25
2023-10-12T16:55:22.308Z,100436.34
2023-10-12T16:58:23.888Z,100454.66
2023-10-12T17:01:25.686Z,100447.47
2023-10-12T17:04:32.384Z,100440.53
2023-10-12T17:07:35.738Z,100451.13
2023-10-12T17:10:37.304Z,100457.63
2023-10-12T17:13:38.903Z,100459.88
2023-10-12T17:16:41.258Z,100463.50
2023-10-12T17:19:42.754Z,100468.09
2023-10-12T17:22:44.514Z,100470.75
2023-10-12T17:25:47.053Z,100475.38
2023-10-12T17:28:48.991Z,100488.72
2023-10-12T17:31:50.928Z,100490.44
2023-10-12T17:34:54.512Z,100478.91
2023-10-12T17:37:56.638Z,100481.66
2023-10-12T17:41:00.805Z,100491.03
2023-10-12T17:44:02.890Z,100500.66
2023-10-12T17:47:04.528Z,100504.50
2023-10-12T17:50:16.836Z,100500.28
2023-10-12T17:53:18.431Z,100497.44
2023-10-12T17:56:20.649Z,100494.53
2023-10-12T17:59:22.542Z,100497.22
2023-10-12T18:02:24.314Z,100491.88
2023-10-12T18:05:28.193Z,100486.53
2023-10-12T18:08:29.643Z,100492.63
2023-10-12T18:11:31.298Z,100500.66
2023-10-12T18:14:32.774Z,100501.59
2023-10-12T18:17:35.084Z,100504.69
2023-10-12T18:20:36.729Z,100504.34
2023-10-12T18:23:40.589Z,100502.66
2023-10-12T18:26:42.229Z,100508.84
2023-10-12T18:29:45.100Z,100522.03
2023-10-12T18:32:49.505Z,100512.75
2023-10-12T18:35:51.080Z,100527.06
2023-10-12T18:38:52.510Z,100524.03
2023-10-12T18:41:53.999Z,100525.97
2023-10-12T18:44:55.452Z,100518.50
2023-10-12T18:47:57.095Z,100524.22
2023-10-12T18:51:00.028Z,100527.94
2023-10-12T18:54:02.813Z,100517.47
2023-10-12T18:57:04.407Z,100516.63
2023-10-12T19:00:16.985Z,100526.34
2023-10-12T19:03:19.192Z,100528.03
2023-10-12T19:06:20.678Z,100530.69
2023-10-12T19:09:22.653Z,100528.03
2023-10-12T19:12:25.865Z,100535.50
2023-10-12T19:15:27.357Z,100528.59
2023-10-12T19:18:33.198Z,100533.09
2023-10-12T19:21:35.739Z,100535.69
2023-10-12T19:24:37.772Z,100545.00
2023-10-12T19:27:39.230Z,100545.22
2023-10-12T19:30:41.503Z,100533.22
2023-10-12T19:33:43.350Z,100543.50
2023-10-12T19:36:45.104Z,100532.75
2023-10-12T19:39:46.772Z,100532.44
2023-10-12T19:43:01.763Z,100531.28
2023-10-12T19:46:07.974Z,100529.47
2023-10-12T19:49:10.116Z,100541.03
2023-10-12T19:52:12.706Z,100513.44
2023-10-12T19:55:14.310Z,100513.00
2023-10-12T19:58:15.987Z,100520.44
2023-10-12T20:01:21.511Z,100517.22
2023-10-12T20:04:23.693Z,100521.69
2023-10-12T20:07:25.370Z,100523.50
2023-10-12T20:10:26.875Z,100530.34
2023-10-12T20:13:34.125Z,100529.31
2023-10-12T20:16:35.770Z,100529.38
2023-10-12T20:19:37.936Z,100530.16
2023-10-12T20:22:40.675Z,100524.06
2023-10-12T20:25:48.382Z,100528.53
2023-10-12T20:28:49.916Z,100526.38
2023-10-12T20:31:51.841Z,100524.66
2023-10-12T20:34:53.365Z,100522.28
2023-10-12T20:37:57.234Z,100522.94
2023-10-12T20:40:58.965Z,100531.72
2023-10-12T20:44:00.462Z,100532.94
2023-10-12T20:47:01.976Z,100545.53
2023-10-12T20:50:06.721Z,100548.97
2023-10-12T20:53:16.519Z,100554.94
2023-10-12T20:56:37.115Z,100568.22
2023-10-12T20:59:47.068Z,100558.41
2023-10-12T21:02:48.693Z,100551.13
2023-10-12T21:05:51.514Z,100546.47
2023-10-12T21:08:58.103Z,100533.00
2023-10-12T21:12:15.448Z,100531.13
2023-10-12T21:15:24.201Z,100538.16
2023-10-12T21:18:35.001Z,100533.00
2023-10-12T21:21:36.444Z,100533.69
2023-10-12T21:24:38.893Z,100528.06
2023-10-12T21:27:46.346Z,100528.91
2023-10-12T21:30:51.930Z,100531.97
2023-10-12T21:34:14.005Z,100520.81
2023-10-12T21:37:19.588Z,100526.53
2023-10-12T21:40:21.154Z,100510.41
2023-10-12T21:43:22.649Z,100520.06
2023-10-12T21:46:28.236Z,100526.63
2023-10-12T21:49:33.696Z,100526.94
2023-10-12T21:52:35.368Z,100529.91
2023-10-12T21:55:36.951Z,100533.91
2023-10-12T21:58:39.913Z,100524.47
2023-10-12T22:02:03.798Z,100494.38
2023-10-12T22:05:14.514Z,100497.91
2023-10-12T22:08:20.076Z,100503.44
2023-10-12T22:11:21.667Z,100512.88
2023-10-12T22:14:42.140Z,100512.66
2023-10-12T22:17:48.818Z,100519.88
2023-10-12T22:20:57.783Z,100527.72
2023-10-12T22:23:59.287Z,100525.72
2023-10-12T22:27:01.111Z,100537.44
2023-10-12T22:30:04.929Z,100534.00
2023-10-12T22:33:08.073Z,100532.09
2023-10-12T22:36:09.585Z,100519.63
2023-10-12T22:39:16.160Z,100520.56
2023-10-12T22:42:18.406Z,100509.03
2023-10-12T22:45:21.712Z,100516.19
2023-10-12T22:48:23.222Z,100517.78
2023-10-12T22:51:26.365Z,100517.78
2023-10-12T22:54:36.978Z,100520.47
2023-10-12T22:57:39.012Z,100524.84
2023-10-12T23:00:40.438Z,100521.06
2023-10-12T23:03:43.019Z,100530.00
2023-10-12T23:06:44.528Z,100531.72
2023-10-12T23:09:46.122Z,100534.56
2023-10-12T23:12:50.641Z,100527.63
2023-10-12T23:15:56.252Z,100534.78
2023-10-12T23:19:13.980Z,100519.50
2023-10-12T23:22:24.619Z,100528.47
2023-10-12T23:25:26.272Z,100523.97
2023-10-12T23:28:27.775Z,100514.38
2023-10-12T23:31:30.330Z,100516.97
2023-10-12T23:34:41.641Z,100519.88
2023-10-12T23:37:59.728Z,100518.00
2023-10-12T23:41:10.196Z,100525.06
2023-10-12T23:44:42.046Z,100522.09
2023-10-12T23:47:43.501Z,100525.03
2023-10-12T23:51:00.002Z,100525.31
2023-10-12T23:54:21.570Z,100519.34
2023-10-12T23:57:23.109Z,100514.00
